< < Back
Terminal Aerodrome Forecast


Current Version              Previous Versions:   1  2  3  4  5  6  7  8  9  

Terminal Aerodrome Forecast

711
FTUS42 KCAE 261500 AAA
TAFCAE
TAF AMD
KCAE 261539Z 2616/2712 23010G18KT P6SM BKN040
     FM270000 22006KT P6SM OVC100
     FM270800 VRB06KT 4SM -RA BR SCT007 OVC015=

Latest METAR

813
SAUS80 KWBC 261900
MTRCAE
METAR KCAE 261856Z 23009G17KT 10SM FEW049 SCT065 BKN080 25/13 A2985 RMK
AO2 SLP106 T02500133


USA.gov is the U.S. government's official web portal to all federal, state and local government web resources and services.